WMT2535 LKPR-LROP
Flight info
| Callsign | WMT2535 |
|---|---|
| Flight time | 1h 27m |
| Altitude | 35000 |
| Route | VOZ DCT LIKSA DCT PEPIK DCT DEGET DCT EKNAB DCT LAMIT DCT TOSVI |
| Aircraft | A321/M-SDE3FGHIRWY/LB1 |
Departure
| Time | 2026-05-05 17:26 |
|---|---|
| Airport | Václav Havel Airport Prague (LKPR) |
Arrival
| Time | 2026-05-05 18:53 |
|---|---|
| Airport | Bucharest Henri Coandă International Airport (LROP) |
| Time | Latitude | Longitude | Altitude | Speed | Heading |
|---|---|---|---|---|---|
| 2026-05-05 16:42 | 50.10414 | 14.26639 | 1171 ft | 0 kts | 34° |
| 2026-05-05 17:09 | 50.10414 | 14.26638 | 1146 ft | 0 kts | 34° |
| 2026-05-05 17:15 | 50.10406 | 14.26629 | 1174 ft | 2 kts | 20° |
| 2026-05-05 17:16 | 50.10394 | 14.26622 | 1170 ft | 2 kts | 18° |
| 2026-05-05 17:16 | 50.10378 | 14.26621 | 1171 ft | 2 kts | 348° |
| 2026-05-05 17:16 | 50.10365 | 14.26633 | 1170 ft | 2 kts | 319° |
| 2026-05-05 17:16 | 50.10359 | 14.26646 | 1169 ft | 0 kts | 309° |
| 2026-05-05 17:17 | 50.10359 | 14.26647 | 1169 ft | 0 kts | 309° |
| 2026-05-05 17:20 | 50.10359 | 14.26646 | 1169 ft | 0 kts | 309° |
| 2026-05-05 17:20 | 50.10366 | 14.26630 | 1170 ft | 4 kts | 303° |
| 2026-05-05 17:20 | 50.10385 | 14.26586 | 1171 ft | 6 kts | 304° |
| 2026-05-05 17:21 | 50.10413 | 14.26521 | 1171 ft | 8 kts | 304° |
| 2026-05-05 17:21 | 50.10448 | 14.26442 | 1169 ft | 9 kts | 305° |
| 2026-05-05 17:21 | 50.10473 | 14.26384 | 1173 ft | 10 kts | 305° |
| 2026-05-05 17:22 | 50.10540 | 14.26189 | 1173 ft | 10 kts | 275° |
| 2026-05-05 17:22 | 50.10529 | 14.26083 | 1170 ft | 10 kts | 258° |
| 2026-05-05 17:22 | 50.10516 | 14.25990 | 1172 ft | 7 kts | 258° |
| 2026-05-05 17:22 | 50.10524 | 14.25924 | 1172 ft | 7 kts | 301° |
| 2026-05-05 17:23 | 50.10551 | 14.25863 | 1171 ft | 8 kts | 303° |
| 2026-05-05 17:23 | 50.10588 | 14.25771 | 1173 ft | 13 kts | 302° |
| 2026-05-05 17:23 | 50.10637 | 14.25638 | 1172 ft | 14 kts | 291° |
| 2026-05-05 17:23 | 50.10609 | 14.25512 | 1171 ft | 13 kts | 242° |
| 2026-05-05 17:24 | 50.10583 | 14.25366 | 1171 ft | 16 kts | 259° |
| 2026-05-05 17:24 | 50.10559 | 14.25185 | 1164 ft | 16 kts | 257° |
| 2026-05-05 17:24 | 50.10514 | 14.25130 | 1165 ft | 6 kts | 149° |
| 2026-05-05 17:24 | 50.10500 | 14.25166 | 1167 ft | 1 kts | 126° |
| 2026-05-05 17:25 | 50.10492 | 14.25183 | 1168 ft | 10 kts | 128° |
| 2026-05-05 17:25 | 50.10404 | 14.25352 | 1174 ft | 51 kts | 125° |
| 2026-05-05 17:25 | 50.09893 | 14.26418 | 1201 ft | 129 kts | 127° |
| 2026-05-05 17:25 | 50.09275 | 14.27684 | 1380 ft | 157 kts | 128° |
| 2026-05-05 17:26 | 50.08618 | 14.29020 | 2079 ft | 152 kts | 125° |
| 2026-05-05 17:26 | 50.07974 | 14.30332 | 2704 ft | 153 kts | 125° |
| 2026-05-05 17:26 | 50.07325 | 14.31662 | 3317 ft | 158 kts | 126° |
| 2026-05-05 17:26 | 50.06632 | 14.33100 | 3663 ft | 178 kts | 126° |
| 2026-05-05 17:27 | 50.05840 | 14.34752 | 3838 ft | 198 kts | 126° |
| 2026-05-05 17:27 | 50.04984 | 14.36533 | 4009 ft | 219 kts | 127° |
| 2026-05-05 17:27 | 50.04231 | 14.38091 | 4104 ft | 236 kts | 127° |
| 2026-05-05 17:27 | 50.03356 | 14.39888 | 4369 ft | 247 kts | 127° |
| 2026-05-05 17:28 | 50.02271 | 14.42128 | 4775 ft | 260 kts | 127° |
| 2026-05-05 17:28 | 50.01154 | 14.44424 | 5004 ft | 270 kts | 127° |
| 2026-05-05 17:28 | 50.00013 | 14.46769 | 5310 ft | 273 kts | 128° |
| 2026-05-05 17:28 | 49.98811 | 14.49046 | 6054 ft | 274 kts | 137° |
| 2026-05-05 17:29 | 49.97290 | 14.50816 | 6699 ft | 276 kts | 152° |
| 2026-05-05 17:29 | 49.95594 | 14.52227 | 7357 ft | 278 kts | 153° |
| 2026-05-05 17:29 | 49.93872 | 14.53664 | 8029 ft | 280 kts | 153° |
| 2026-05-05 17:29 | 49.92150 | 14.55107 | 8712 ft | 283 kts | 153° |
| 2026-05-05 17:30 | 49.90411 | 14.56568 | 9389 ft | 285 kts | 154° |
| 2026-05-05 17:30 | 49.88656 | 14.58043 | 9995 ft | 290 kts | 154° |
| 2026-05-05 17:30 | 49.86880 | 14.59528 | 10153 ft | 312 kts | 154° |
| 2026-05-05 17:30 | 49.84898 | 14.61182 | 10290 ft | 333 kts | 154° |
| 2026-05-05 17:31 | 49.82797 | 14.62936 | 10407 ft | 353 kts | 153° |
| 2026-05-05 17:31 | 49.80593 | 14.64777 | 10734 ft | 364 kts | 153° |
| 2026-05-05 17:31 | 49.78362 | 14.66639 | 11279 ft | 368 kts | 153° |
| 2026-05-05 17:31 | 49.76098 | 14.68527 | 11871 ft | 371 kts | 153° |
| 2026-05-05 17:32 | 49.73817 | 14.70428 | 12470 ft | 374 kts | 153° |
| 2026-05-05 17:32 | 49.71516 | 14.72342 | 13059 ft | 377 kts | 153° |
| 2026-05-05 17:32 | 49.69196 | 14.74264 | 13631 ft | 380 kts | 153° |
| 2026-05-05 17:32 | 49.66856 | 14.76200 | 14155 ft | 384 kts | 153° |
| 2026-05-05 17:33 | 49.64500 | 14.78152 | 14662 ft | 387 kts | 153° |
| 2026-05-05 17:33 | 49.62114 | 14.80129 | 15225 ft | 390 kts | 154° |
| 2026-05-05 17:33 | 49.59726 | 14.82108 | 15751 ft | 393 kts | 154° |
| 2026-05-05 17:33 | 49.57301 | 14.84112 | 16282 ft | 396 kts | 153° |
| 2026-05-05 17:34 | 49.55001 | 14.86465 | 16788 ft | 402 kts | 142° |
| 2026-05-05 17:34 | 49.52997 | 14.89508 | 17302 ft | 408 kts | 131° |
| 2026-05-05 17:34 | 49.51391 | 14.93131 | 17819 ft | 414 kts | 120° |
| 2026-05-05 17:34 | 49.50083 | 14.97125 | 18276 ft | 418 kts | 118° |
| 2026-05-05 17:35 | 49.48781 | 15.01128 | 18710 ft | 420 kts | 118° |
| 2026-05-05 17:35 | 49.47459 | 15.05165 | 19137 ft | 423 kts | 118° |
| 2026-05-05 17:35 | 49.46137 | 15.09194 | 19559 ft | 425 kts | 118° |
| 2026-05-05 17:35 | 49.44796 | 15.13272 | 19992 ft | 427 kts | 119° |
| 2026-05-05 17:36 | 49.43456 | 15.17332 | 20406 ft | 429 kts | 119° |
| 2026-05-05 17:36 | 49.42093 | 15.21452 | 20821 ft | 432 kts | 119° |
| 2026-05-05 17:36 | 49.40732 | 15.25561 | 21217 ft | 434 kts | 119° |
| 2026-05-05 17:36 | 49.39359 | 15.29708 | 21625 ft | 436 kts | 119° |
| 2026-05-05 17:37 | 49.37982 | 15.33867 | 22014 ft | 438 kts | 119° |
| 2026-05-05 17:37 | 49.36596 | 15.38057 | 22406 ft | 441 kts | 119° |
| 2026-05-05 17:37 | 49.35204 | 15.42253 | 22788 ft | 443 kts | 119° |
| 2026-05-05 17:37 | 49.33800 | 15.46469 | 23158 ft | 445 kts | 119° |
| 2026-05-05 17:38 | 49.32415 | 15.50618 | 23495 ft | 447 kts | 119° |
| 2026-05-05 17:38 | 49.30995 | 15.54873 | 23800 ft | 449 kts | 119° |
| 2026-05-05 17:38 | 49.29570 | 15.59136 | 24104 ft | 452 kts | 119° |
| 2026-05-05 17:38 | 49.28128 | 15.63443 | 24405 ft | 454 kts | 119° |
| 2026-05-05 17:39 | 49.26678 | 15.67761 | 24718 ft | 456 kts | 119° |
| 2026-05-05 17:39 | 49.25227 | 15.72076 | 25020 ft | 458 kts | 119° |
| 2026-05-05 17:39 | 49.23765 | 15.76419 | 25312 ft | 461 kts | 119° |
| 2026-05-05 17:39 | 49.22289 | 15.80805 | 25598 ft | 463 kts | 119° |
| 2026-05-05 17:40 | 49.20808 | 15.85187 | 25881 ft | 465 kts | 119° |
| 2026-05-05 17:40 | 49.19319 | 15.89579 | 26160 ft | 467 kts | 119° |
| 2026-05-05 17:40 | 49.17816 | 15.94003 | 26437 ft | 470 kts | 119° |
| 2026-05-05 17:40 | 49.16308 | 15.98433 | 26724 ft | 472 kts | 119° |
| 2026-05-05 17:41 | 49.14792 | 16.02887 | 27005 ft | 474 kts | 119° |
| 2026-05-05 17:41 | 49.13260 | 16.07383 | 27275 ft | 476 kts | 119° |
| 2026-05-05 17:41 | 49.11731 | 16.11858 | 27633 ft | 476 kts | 119° |
| 2026-05-05 17:41 | 49.10196 | 16.16344 | 28037 ft | 476 kts | 119° |
| 2026-05-05 17:42 | 49.08670 | 16.20810 | 28434 ft | 475 kts | 119° |
| 2026-05-05 17:42 | 49.07151 | 16.25252 | 28805 ft | 475 kts | 119° |
| 2026-05-05 17:42 | 49.05612 | 16.29729 | 29165 ft | 475 kts | 119° |
| 2026-05-05 17:42 | 49.04067 | 16.34198 | 29544 ft | 475 kts | 120° |
| 2026-05-05 17:43 | 49.02531 | 16.38639 | 29881 ft | 475 kts | 119° |
| 2026-05-05 17:43 | 49.00992 | 16.43092 | 30211 ft | 474 kts | 119° |
| 2026-05-05 17:43 | 48.99456 | 16.47539 | 30528 ft | 474 kts | 119° |
| 2026-05-05 17:43 | 48.97941 | 16.51910 | 30849 ft | 473 kts | 120° |
| 2026-05-05 17:44 | 48.96380 | 16.56396 | 31159 ft | 472 kts | 120° |
| 2026-05-05 17:44 | 48.94844 | 16.60798 | 31484 ft | 472 kts | 120° |
| 2026-05-05 17:44 | 48.93307 | 16.65202 | 31786 ft | 471 kts | 120° |
| 2026-05-05 17:44 | 48.91772 | 16.69596 | 32099 ft | 471 kts | 120° |
| 2026-05-05 17:45 | 48.90230 | 16.73997 | 32409 ft | 470 kts | 120° |
| 2026-05-05 17:45 | 48.88692 | 16.78387 | 32702 ft | 470 kts | 120° |
| 2026-05-05 17:45 | 48.87160 | 16.82751 | 33003 ft | 469 kts | 120° |
| 2026-05-05 17:45 | 48.85621 | 16.87131 | 33329 ft | 469 kts | 120° |
| 2026-05-05 17:46 | 48.84085 | 16.91490 | 33606 ft | 468 kts | 120° |
| 2026-05-05 17:46 | 48.82571 | 16.95785 | 33882 ft | 467 kts | 120° |
| 2026-05-05 17:46 | 48.81020 | 17.00177 | 34128 ft | 467 kts | 120° |
| 2026-05-05 17:46 | 48.79480 | 17.04520 | 34358 ft | 467 kts | 120° |
| 2026-05-05 17:47 | 48.77828 | 17.08748 | 34583 ft | 464 kts | 127° |
| 2026-05-05 17:47 | 48.75914 | 17.12597 | 34755 ft | 464 kts | 130° |
| 2026-05-05 17:47 | 48.73918 | 17.16523 | 34797 ft | 465 kts | 129° |
| 2026-05-05 17:48 | 48.69972 | 17.24293 | 34798 ft | 465 kts | 130° |
| 2026-05-05 17:48 | 48.66022 | 17.32049 | 34812 ft | 466 kts | 130° |
| 2026-05-05 17:49 | 48.62060 | 17.39798 | 34827 ft | 465 kts | 130° |
| 2026-05-05 17:49 | 48.58104 | 17.47537 | 34841 ft | 466 kts | 130° |
| 2026-05-05 17:50 | 48.54132 | 17.55280 | 34853 ft | 466 kts | 130° |
| 2026-05-05 17:50 | 48.50379 | 17.62560 | 34876 ft | 467 kts | 130° |
| 2026-05-05 17:51 | 48.46383 | 17.70291 | 34876 ft | 467 kts | 130° |
| 2026-05-05 17:51 | 48.42398 | 17.77992 | 34872 ft | 467 kts | 130° |
| 2026-05-05 17:52 | 48.38386 | 17.85718 | 34874 ft | 467 kts | 130° |
| 2026-05-05 17:52 | 48.34404 | 17.93375 | 34874 ft | 467 kts | 130° |
| 2026-05-05 17:53 | 48.30378 | 18.01079 | 34881 ft | 467 kts | 130° |
| 2026-05-05 17:53 | 48.26357 | 18.08749 | 34883 ft | 466 kts | 130° |
| 2026-05-05 17:54 | 48.22336 | 18.16396 | 34885 ft | 466 kts | 130° |
| 2026-05-05 17:54 | 48.18346 | 18.23971 | 34890 ft | 466 kts | 130° |
| 2026-05-05 17:55 | 48.14313 | 18.31610 | 34894 ft | 466 kts | 130° |
| 2026-05-05 17:55 | 48.10286 | 18.39205 | 34899 ft | 466 kts | 130° |
| 2026-05-05 17:56 | 48.06455 | 18.46395 | 34903 ft | 466 kts | 130° |
| 2026-05-05 17:56 | 48.02461 | 18.53890 | 34909 ft | 465 kts | 130° |
| 2026-05-05 17:57 | 47.98437 | 18.61453 | 34910 ft | 465 kts | 130° |
| 2026-05-05 17:57 | 47.94404 | 18.68987 | 34912 ft | 464 kts | 130° |
| 2026-05-05 17:58 | 47.90364 | 18.76493 | 34911 ft | 464 kts | 130° |
| 2026-05-05 17:58 | 47.86325 | 18.83985 | 34913 ft | 464 kts | 130° |
| 2026-05-05 17:59 | 47.82308 | 18.91415 | 34916 ft | 464 kts | 130° |
| 2026-05-05 17:59 | 47.78241 | 18.98924 | 34923 ft | 464 kts | 130° |
| 2026-05-05 18:00 | 47.74207 | 19.06353 | 34928 ft | 464 kts | 130° |
| 2026-05-05 18:00 | 47.70150 | 19.13814 | 34932 ft | 464 kts | 130° |
| 2026-05-05 18:01 | 47.66079 | 19.21264 | 34930 ft | 464 kts | 130° |
| 2026-05-05 18:01 | 47.62667 | 19.27487 | 34937 ft | 465 kts | 130° |
| 2026-05-05 18:02 | 47.58586 | 19.34918 | 34937 ft | 465 kts | 130° |
| 2026-05-05 18:02 | 47.54502 | 19.42339 | 34936 ft | 465 kts | 130° |
| 2026-05-05 18:03 | 47.50581 | 19.49441 | 34931 ft | 465 kts | 130° |
| 2026-05-05 18:03 | 47.46436 | 19.56935 | 34930 ft | 465 kts | 130° |
| 2026-05-05 18:04 | 47.42336 | 19.64331 | 34933 ft | 465 kts | 130° |
| 2026-05-05 18:04 | 47.38235 | 19.71701 | 34925 ft | 465 kts | 130° |
| 2026-05-05 18:05 | 47.34121 | 19.79075 | 34926 ft | 465 kts | 130° |
| 2026-05-05 18:05 | 47.30022 | 19.86395 | 34928 ft | 465 kts | 130° |
| 2026-05-05 18:06 | 47.25893 | 19.93747 | 34932 ft | 465 kts | 130° |
| 2026-05-05 18:06 | 47.21776 | 20.01064 | 34933 ft | 465 kts | 130° |
| 2026-05-05 18:07 | 47.17640 | 20.08408 | 34938 ft | 465 kts | 130° |
| 2026-05-05 18:07 | 47.13511 | 20.15725 | 34938 ft | 465 kts | 130° |
| 2026-05-05 18:08 | 47.09376 | 20.23018 | 34939 ft | 465 kts | 131° |
| 2026-05-05 18:08 | 47.05231 | 20.30301 | 34940 ft | 465 kts | 131° |
| 2026-05-05 18:09 | 47.01083 | 20.37570 | 34937 ft | 465 kts | 131° |
| 2026-05-05 18:09 | 46.96932 | 20.44827 | 34938 ft | 465 kts | 131° |
| 2026-05-05 18:10 | 46.92806 | 20.52034 | 34941 ft | 465 kts | 131° |
| 2026-05-05 18:10 | 46.88647 | 20.59271 | 34945 ft | 464 kts | 131° |
| 2026-05-05 18:11 | 46.84494 | 20.66479 | 34942 ft | 464 kts | 131° |
| 2026-05-05 18:11 | 46.80336 | 20.73674 | 34946 ft | 464 kts | 131° |
| 2026-05-05 18:12 | 46.76171 | 20.80873 | 34943 ft | 464 kts | 131° |
| 2026-05-05 18:12 | 46.72326 | 20.87495 | 34941 ft | 464 kts | 131° |
| 2026-05-05 18:13 | 46.68345 | 20.94331 | 34942 ft | 464 kts | 131° |
| 2026-05-05 18:13 | 46.64165 | 21.01491 | 34946 ft | 464 kts | 131° |
| 2026-05-05 18:14 | 46.59968 | 21.08657 | 34949 ft | 464 kts | 131° |
| 2026-05-05 18:14 | 46.55788 | 21.15788 | 34951 ft | 464 kts | 131° |
| 2026-05-05 18:15 | 46.51599 | 21.22927 | 34953 ft | 464 kts | 131° |
| 2026-05-05 18:15 | 46.47395 | 21.30029 | 34959 ft | 464 kts | 132° |
| 2026-05-05 18:16 | 46.43159 | 21.36978 | 34959 ft | 464 kts | 132° |
| 2026-05-05 18:16 | 46.38841 | 21.44004 | 34961 ft | 463 kts | 132° |
| 2026-05-05 18:17 | 46.34587 | 21.50944 | 34961 ft | 463 kts | 132° |
| 2026-05-05 18:17 | 46.30310 | 21.57926 | 34963 ft | 463 kts | 132° |
| 2026-05-05 18:18 | 46.26040 | 21.64884 | 34961 ft | 463 kts | 132° |
| 2026-05-05 18:18 | 46.21755 | 21.71840 | 34966 ft | 463 kts | 132° |
| 2026-05-05 18:19 | 46.17471 | 21.78770 | 34963 ft | 463 kts | 132° |
| 2026-05-05 18:19 | 46.13180 | 21.85683 | 34966 ft | 463 kts | 132° |
| 2026-05-05 18:20 | 46.08879 | 21.92597 | 34972 ft | 463 kts | 132° |
| 2026-05-05 18:20 | 46.04586 | 21.99499 | 34974 ft | 463 kts | 132° |
| 2026-05-05 18:21 | 46.00289 | 22.06404 | 34980 ft | 463 kts | 132° |
| 2026-05-05 18:21 | 45.95971 | 22.13288 | 34984 ft | 464 kts | 132° |
| 2026-05-05 18:22 | 45.91647 | 22.20170 | 34984 ft | 464 kts | 132° |
| 2026-05-05 18:22 | 45.87332 | 22.27045 | 34989 ft | 464 kts | 132° |
| 2026-05-05 18:23 | 45.83002 | 22.33922 | 34991 ft | 464 kts | 132° |
| 2026-05-05 18:23 | 45.78660 | 22.40790 | 34996 ft | 465 kts | 132° |
| 2026-05-05 18:24 | 45.74314 | 22.47650 | 35000 ft | 465 kts | 132° |
| 2026-05-05 18:24 | 45.69888 | 22.54412 | 35003 ft | 466 kts | 134° |
| 2026-05-05 18:25 | 45.65267 | 22.60918 | 35012 ft | 467 kts | 135° |
| 2026-05-05 18:25 | 45.60625 | 22.67331 | 35023 ft | 467 kts | 135° |
| 2026-05-05 18:26 | 45.55959 | 22.73866 | 35026 ft | 467 kts | 135° |
| 2026-05-05 18:26 | 45.51340 | 22.80395 | 35025 ft | 468 kts | 134° |
| 2026-05-05 18:27 | 45.46711 | 22.86934 | 35037 ft | 469 kts | 134° |
| 2026-05-05 18:27 | 45.42071 | 22.93459 | 35035 ft | 469 kts | 135° |
| 2026-05-05 18:28 | 45.35090 | 23.03212 | 35038 ft | 470 kts | 135° |
| 2026-05-05 18:28 | 45.30419 | 23.09716 | 35036 ft | 470 kts | 135° |
| 2026-05-05 18:29 | 45.25741 | 23.16213 | 35036 ft | 471 kts | 135° |
| 2026-05-05 18:29 | 45.21057 | 23.22706 | 35033 ft | 471 kts | 135° |
| 2026-05-05 18:30 | 45.16384 | 23.29199 | 35026 ft | 472 kts | 134° |
| 2026-05-05 18:30 | 45.12005 | 23.36043 | 35024 ft | 470 kts | 122° |
| 2026-05-05 18:31 | 45.09145 | 23.44263 | 35020 ft | 465 kts | 104° |
| 2026-05-05 18:31 | 45.07469 | 23.53079 | 35017 ft | 465 kts | 102° |
| 2026-05-05 18:32 | 45.05810 | 23.61856 | 35021 ft | 465 kts | 102° |
| 2026-05-05 18:32 | 45.04119 | 23.70712 | 35022 ft | 466 kts | 102° |
| 2026-05-05 18:33 | 45.03272 | 23.75134 | 34635 ft | 468 kts | 102° |
| 2026-05-05 18:33 | 45.02411 | 23.79636 | 33567 ft | 478 kts | 102° |
| 2026-05-05 18:33 | 45.01828 | 23.82693 | 33050 ft | 479 kts | 102° |
| 2026-05-05 18:33 | 45.00924 | 23.87421 | 32158 ft | 481 kts | 102° |
| 2026-05-05 18:34 | 45.00115 | 23.91645 | 31302 ft | 478 kts | 102° |
| 2026-05-05 18:34 | 44.99501 | 23.94835 | 30677 ft | 468 kts | 102° |
| 2026-05-05 18:34 | 44.98966 | 23.97600 | 30110 ft | 461 kts | 102° |
| 2026-05-05 18:34 | 44.98260 | 24.01209 | 29283 ft | 450 kts | 102° |
| 2026-05-05 18:35 | 44.97654 | 24.04332 | 28518 ft | 453 kts | 102° |
| 2026-05-05 18:35 | 44.96837 | 24.08578 | 27673 ft | 456 kts | 102° |
| 2026-05-05 18:35 | 44.96001 | 24.12915 | 26988 ft | 455 kts | 102° |
| 2026-05-05 18:36 | 44.95262 | 24.16731 | 26501 ft | 450 kts | 102° |
| 2026-05-05 18:36 | 44.94492 | 24.20679 | 25927 ft | 448 kts | 103° |
| 2026-05-05 18:36 | 44.93663 | 24.24908 | 25311 ft | 446 kts | 103° |
| 2026-05-05 18:36 | 44.92839 | 24.29108 | 24706 ft | 444 kts | 103° |
| 2026-05-05 18:37 | 44.92559 | 24.30536 | 24500 ft | 443 kts | 103° |
| 2026-05-05 18:37 | 44.91161 | 24.37842 | 23428 ft | 438 kts | 101° |
| 2026-05-05 18:37 | 44.90411 | 24.41926 | 22797 ft | 434 kts | 103° |
| 2026-05-05 18:38 | 44.90150 | 24.43274 | 22610 ft | 433 kts | 103° |
| 2026-05-05 18:38 | 44.89266 | 24.47626 | 22014 ft | 427 kts | 104° |
| 2026-05-05 18:38 | 44.88512 | 24.51194 | 21454 ft | 424 kts | 104° |
| 2026-05-05 18:38 | 44.87800 | 24.54624 | 20978 ft | 420 kts | 104° |
| 2026-05-05 18:39 | 44.87008 | 24.58516 | 20427 ft | 416 kts | 104° |
| 2026-05-05 18:39 | 44.86218 | 24.62457 | 19886 ft | 413 kts | 104° |
| 2026-05-05 18:39 | 44.85448 | 24.66332 | 19362 ft | 409 kts | 104° |
| 2026-05-05 18:39 | 44.84690 | 24.70154 | 18859 ft | 407 kts | 104° |
| 2026-05-05 18:40 | 44.83923 | 24.74010 | 18352 ft | 404 kts | 104° |
| 2026-05-05 18:40 | 44.83419 | 24.76544 | 17991 ft | 402 kts | 104° |
| 2026-05-05 18:40 | 44.82629 | 24.80310 | 17295 ft | 402 kts | 107° |
| 2026-05-05 18:40 | 44.81699 | 24.84056 | 16152 ft | 403 kts | 108° |
| 2026-05-05 18:41 | 44.80733 | 24.87678 | 15387 ft | 388 kts | 109° |
| 2026-05-05 18:41 | 44.79758 | 24.91190 | 14908 ft | 381 kts | 109° |
| 2026-05-05 18:41 | 44.78792 | 24.94651 | 14389 ft | 378 kts | 109° |
| 2026-05-05 18:41 | 44.77840 | 24.98080 | 13881 ft | 375 kts | 109° |
| 2026-05-05 18:42 | 44.76905 | 25.01489 | 13306 ft | 372 kts | 109° |
| 2026-05-05 18:42 | 44.75988 | 25.04861 | 12793 ft | 367 kts | 109° |
| 2026-05-05 18:42 | 44.75088 | 25.08178 | 12272 ft | 364 kts | 108° |
| 2026-05-05 18:42 | 44.74182 | 25.11511 | 11752 ft | 360 kts | 108° |
| 2026-05-05 18:43 | 44.73293 | 25.14779 | 11242 ft | 357 kts | 108° |
| 2026-05-05 18:43 | 44.72411 | 25.18025 | 10778 ft | 356 kts | 108° |
| 2026-05-05 18:43 | 44.71541 | 25.21221 | 10608 ft | 340 kts | 108° |
| 2026-05-05 18:43 | 44.70720 | 25.24219 | 10483 ft | 318 kts | 108° |
| 2026-05-05 18:44 | 44.69944 | 25.27040 | 10285 ft | 302 kts | 108° |
| 2026-05-05 18:44 | 44.69201 | 25.29748 | 10049 ft | 295 kts | 108° |
| 2026-05-05 18:44 | 44.68467 | 25.32430 | 9852 ft | 292 kts | 108° |
| 2026-05-05 18:44 | 44.67737 | 25.35097 | 9730 ft | 293 kts | 108° |
| 2026-05-05 18:45 | 44.67015 | 25.37733 | 9598 ft | 293 kts | 108° |
| 2026-05-05 18:45 | 44.66284 | 25.40394 | 9463 ft | 293 kts | 108° |
| 2026-05-05 18:45 | 44.65545 | 25.43080 | 9066 ft | 295 kts | 108° |
| 2026-05-05 18:45 | 44.64815 | 25.45727 | 8612 ft | 291 kts | 109° |
| 2026-05-05 18:46 | 44.64087 | 25.48375 | 8157 ft | 289 kts | 109° |
| 2026-05-05 18:46 | 44.63362 | 25.51017 | 7708 ft | 291 kts | 109° |
| 2026-05-05 18:46 | 44.62637 | 25.53656 | 7271 ft | 293 kts | 109° |
| 2026-05-05 18:46 | 44.61899 | 25.56336 | 6868 ft | 292 kts | 109° |
| 2026-05-05 18:47 | 44.61171 | 25.58963 | 6394 ft | 288 kts | 110° |
| 2026-05-05 18:47 | 44.60440 | 25.61584 | 5874 ft | 286 kts | 110° |
| 2026-05-05 18:47 | 44.59736 | 25.64107 | 5427 ft | 281 kts | 110° |
| 2026-05-05 18:47 | 44.59017 | 25.66696 | 4989 ft | 280 kts | 111° |
| 2026-05-05 18:48 | 44.58297 | 25.69286 | 4603 ft | 280 kts | 111° |
| 2026-05-05 18:48 | 44.57594 | 25.71804 | 4189 ft | 281 kts | 111° |
| 2026-05-05 18:48 | 44.56891 | 25.74317 | 3960 ft | 275 kts | 111° |
| 2026-05-05 18:48 | 44.56204 | 25.76773 | 3827 ft | 266 kts | 111° |
| 2026-05-05 18:49 | 44.55536 | 25.79159 | 3720 ft | 254 kts | 111° |
| 2026-05-05 18:49 | 44.54911 | 25.81404 | 3603 ft | 240 kts | 110° |
| 2026-05-05 18:49 | 44.54632 | 25.83609 | 3477 ft | 232 kts | 90° |
| 2026-05-05 18:49 | 44.54774 | 25.85856 | 3140 ft | 231 kts | 84° |
| 2026-05-05 18:50 | 44.54953 | 25.88101 | 2821 ft | 227 kts | 84° |
| 2026-05-05 18:50 | 44.55124 | 25.90262 | 2553 ft | 225 kts | 84° |
| 2026-05-05 18:50 | 44.55294 | 25.92399 | 2508 ft | 206 kts | 85° |
| 2026-05-05 18:50 | 44.55447 | 25.94286 | 2402 ft | 187 kts | 84° |
| 2026-05-05 18:51 | 44.55602 | 25.96074 | 1908 ft | 188 kts | 86° |
| 2026-05-05 18:51 | 44.55724 | 25.97873 | 1643 ft | 176 kts | 87° |
| 2026-05-05 18:51 | 44.55854 | 25.99550 | 1377 ft | 169 kts | 85° |
| 2026-05-05 18:51 | 44.55973 | 26.01161 | 1215 ft | 166 kts | 88° |
| 2026-05-05 18:52 | 44.56075 | 26.02669 | 1000 ft | 165 kts | 85° |
| 2026-05-05 18:52 | 44.56207 | 26.04198 | 824 ft | 155 kts | 85° |
| 2026-05-05 18:52 | 44.56319 | 26.05675 | 597 ft | 150 kts | 85° |
| 2026-05-05 18:52 | 44.56432 | 26.07139 | 429 ft | 149 kts | 85° |
| 2026-05-05 18:53 | 44.56532 | 26.08560 | 322 ft | 137 kts | 85° |
| 2026-05-05 18:53 | 44.56600 | 26.09511 | 323 ft | 73 kts | 83° |
| 2026-05-05 18:53 | 44.56646 | 26.10119 | 323 ft | 54 kts | 84° |
| 2026-05-05 18:53 | 44.56682 | 26.10579 | 323 ft | 34 kts | 84° |
| 2026-05-05 18:54 | 44.56724 | 26.10748 | 323 ft | 15 kts | 23° |
| 2026-05-05 18:54 | 44.56827 | 26.10755 | 322 ft | 11 kts | 354° |
| 2026-05-05 18:54 | 44.56865 | 26.10750 | 322 ft | 4 kts | 354° |
| 2026-05-05 18:54 | 44.56895 | 26.10746 | 322 ft | 5 kts | 354° |
| 2026-05-05 18:55 | 44.56933 | 26.10740 | 322 ft | 6 kts | 354° |
| 2026-05-05 18:55 | 44.56976 | 26.10726 | 322 ft | 7 kts | 338° |
| 2026-05-05 18:55 | 44.57012 | 26.10679 | 322 ft | 9 kts | 308° |
| 2026-05-05 18:55 | 44.57051 | 26.10583 | 321 ft | 14 kts | 295° |
| 2026-05-05 18:56 | 44.57052 | 26.10440 | 322 ft | 17 kts | 263° |
| 2026-05-05 18:56 | 44.57050 | 26.10303 | 322 ft | 13 kts | 264° |
| 2026-05-05 18:56 | 44.57041 | 26.10168 | 322 ft | 14 kts | 264° |
| 2026-05-05 18:56 | 44.57030 | 26.10023 | 322 ft | 15 kts | 264° |
| 2026-05-05 18:57 | 44.57018 | 26.09868 | 322 ft | 16 kts | 263° |
| 2026-05-05 18:57 | 44.57005 | 26.09704 | 321 ft | 17 kts | 263° |
| 2026-05-05 18:57 | 44.56992 | 26.09544 | 322 ft | 18 kts | 263° |
| 2026-05-05 18:57 | 44.56978 | 26.09368 | 322 ft | 19 kts | 263° |
| 2026-05-05 18:58 | 44.56965 | 26.09188 | 322 ft | 18 kts | 264° |
| 2026-05-05 18:58 | 44.56952 | 26.09013 | 322 ft | 19 kts | 264° |
| 2026-05-05 18:58 | 44.56940 | 26.08858 | 322 ft | 15 kts | 264° |
| 2026-05-05 18:58 | 44.56929 | 26.08708 | 322 ft | 16 kts | 264° |
| 2026-05-05 18:59 | 44.56921 | 26.08584 | 322 ft | 9 kts | 275° |
| 2026-05-05 18:59 | 44.56974 | 26.08543 | 322 ft | 10 kts | 353° |
| 2026-05-05 18:59 | 44.57049 | 26.08532 | 322 ft | 13 kts | 354° |
| 2026-05-05 18:59 | 44.57140 | 26.08519 | 323 ft | 14 kts | 354° |
| 2026-05-05 19:00 | 44.57221 | 26.08498 | 323 ft | 9 kts | 320° |
| 2026-05-05 19:00 | 44.57224 | 26.08398 | 323 ft | 12 kts | 262° |
| 2026-05-05 19:00 | 44.57217 | 26.08312 | 323 ft | 4 kts | 240° |
| 2026-05-05 19:00 | 44.57186 | 26.08270 | 322 ft | 7 kts | 225° |
| 2026-05-05 19:01 | 44.57158 | 26.08237 | 323 ft | 0 kts | 219° |